createdAt,value
2023-03-05T02:04:09.100Z,98997.19
2023-03-05T02:06:36.416Z,99002.19
2023-03-05T02:09:03.408Z,98995.28
2023-03-05T02:11:30.474Z,98996.00
2023-03-05T02:13:58.669Z,99000.31
2023-03-05T02:16:25.616Z,99001.13
2023-03-05T02:18:52.496Z,99007.31
2023-03-05T02:21:37.279Z,99009.38
2023-03-05T02:24:04.399Z,99006.25
2023-03-05T02:26:31.250Z,99007.16
2023-03-05T02:29:01.160Z,99007.44
2023-03-05T02:31:28.333Z,99005.53
2023-03-05T02:33:56.441Z,99005.31
2023-03-05T02:36:24.362Z,99014.22
2023-03-05T02:38:53.193Z,99009.03
2023-03-05T02:41:20.113Z,99005.00
2023-03-05T02:43:46.936Z,98995.97
2023-03-05T02:46:13.829Z,98997.88
2023-03-05T02:48:40.885Z,99004.50
2023-03-05T02:51:08.687Z,98998.66
2023-03-05T02:53:36.098Z,99002.38
2023-03-05T02:56:03.741Z,99002.75
2023-03-05T02:58:30.594Z,98994.41
2023-03-05T03:00:57.510Z,98999.81
2023-03-05T03:03:24.467Z,98990.25
2023-03-05T03:05:51.376Z,99002.94
2023-03-05T03:08:18.344Z,99012.91
2023-03-05T03:10:45.411Z,99006.19
2023-03-05T03:13:12.194Z,99006.97
2023-03-05T03:15:40.571Z,99003.63
2023-03-05T03:18:07.385Z,99012.75
2023-03-05T03:20:35.063Z,99008.56
2023-03-05T03:23:09.218Z,99028.53
2023-03-05T03:25:36.106Z,99024.47
2023-03-05T03:28:03.191Z,99016.59
2023-03-05T03:30:30.102Z,99025.28
2023-03-05T03:32:56.894Z,99020.25
2023-03-05T03:35:23.747Z,99029.69
2023-03-05T03:37:53.397Z,99028.34
2023-03-05T03:40:20.517Z,99035.25
2023-03-05T03:42:47.506Z,99022.25
2023-03-05T03:45:14.613Z,99026.66
2023-03-05T03:47:41.441Z,99021.88
2023-03-05T03:50:08.917Z,99013.63
2023-03-05T03:52:35.778Z,99029.13
2023-03-05T03:55:02.659Z,99021.97
2023-03-05T03:57:33.726Z,99024.28
2023-03-05T04:00:00.827Z,99024.38
2023-03-05T04:02:27.989Z,99021.88
2023-03-05T04:04:54.954Z,99027.94
2023-03-05T04:07:22.481Z,99013.09
2023-03-05T04:09:49.690Z,99017.09
2023-03-05T04:12:18.477Z,99012.41
2023-03-05T04:14:47.152Z,99013.25
2023-03-05T04:17:14.654Z,99014.06
2023-03-05T04:19:42.333Z,99012.25
2023-03-05T04:22:15.129Z,99020.75
2023-03-05T04:24:42.241Z,99024.59
2023-03-05T04:27:09.410Z,99016.34
2023-03-05T04:29:37.027Z,99025.53
2023-03-05T04:32:04.260Z,99018.84
2023-03-05T04:34:31.264Z,99028.78
2023-03-05T04:36:58.174Z,99016.72
2023-03-05T04:39:25.395Z,99019.88
2023-03-05T04:41:52.201Z,99020.41
2023-03-05T04:44:19.403Z,99021.81
2023-03-05T04:46:46.239Z,99011.75
2023-03-05T04:49:13.269Z,99018.88
2023-03-05T04:51:40.160Z,99022.34
2023-03-05T04:54:07.001Z,99019.72
2023-03-05T04:56:34.490Z,99011.00
2023-03-05T04:59:01.351Z,99025.69
2023-03-05T05:01:28.174Z,99031.75
2023-03-05T05:03:55.064Z,99029.72
2023-03-05T05:06:21.940Z,99031.34
2023-03-05T05:08:48.966Z,99030.50
2023-03-05T05:11:15.805Z,99029.09
2023-03-05T05:13:42.810Z,99033.56
2023-03-05T05:16:10.222Z,99036.28
2023-03-05T05:18:37.205Z,99037.28
2023-03-05T05:21:12.008Z,99054.75
2023-03-05T05:23:39.494Z,99053.91
2023-03-05T05:26:08.506Z,99056.38
2023-03-05T05:28:36.108Z,99052.03
2023-03-05T05:31:08.028Z,99055.09
2023-03-05T05:33:35.005Z,99060.06
2023-03-05T05:36:07.406Z,99064.31
2023-03-05T05:38:34.305Z,99067.13
2023-03-05T05:41:15.270Z,99067.00
2023-03-05T05:43:42.382Z,99069.22
2023-03-05T05:46:13.215Z,99086.19
2023-03-05T05:48:40.627Z,99089.66
2023-03-05T05:51:12.508Z,99081.00
2023-03-05T05:53:39.661Z,99084.38
2023-03-05T05:56:07.988Z,99095.91
2023-03-05T05:58:36.103Z,99097.50
2023-03-05T06:01:03.207Z,99095.44
2023-03-05T06:03:30.151Z,99097.63
2023-03-05T06:05:57.033Z,99095.41
2023-03-05T06:08:23.825Z,99095.84
2023-03-05T06:10:56.679Z,99104.53
2023-03-05T06:13:23.442Z,99108.75
2023-03-05T06:16:01.878Z,99113.03
2023-03-05T06:18:28.934Z,99109.16
2023-03-05T06:21:01.329Z,99111.75
2023-03-05T06:23:28.557Z,99109.47
2023-03-05T06:25:58.830Z,99119.25
2023-03-05T06:28:26.085Z,99122.88
2023-03-05T06:31:01.291Z,99123.84
2023-03-05T06:33:28.117Z,99128.13
2023-03-05T06:35:55.230Z,99133.06
2023-03-05T06:38:22.267Z,99126.66
2023-03-05T06:40:49.114Z,99130.09
2023-03-05T06:43:15.966Z,99127.47
2023-03-05T06:45:42.973Z,99130.88
2023-03-05T06:48:09.848Z,99125.09
2023-03-05T06:50:37.675Z,99139.06
2023-03-05T06:53:04.563Z,99135.59
2023-03-05T06:55:31.535Z,99132.84
2023-03-05T06:57:58.318Z,99134.56
2023-03-05T07:00:29.804Z,99133.78
2023-03-05T07:02:56.622Z,99133.00
2023-03-05T07:05:23.450Z,99142.47
2023-03-05T07:07:50.366Z,99139.78
2023-03-05T07:10:17.274Z,99136.28
2023-03-05T07:12:44.078Z,99138.22
2023-03-05T07:15:11.360Z,99143.41
2023-03-05T07:17:38.182Z,99141.66
2023-03-05T07:20:05.631Z,99144.16
2023-03-05T07:22:32.516Z,99142.28
2023-03-05T07:24:59.301Z,99145.28
2023-03-05T07:27:26.271Z,99144.50
2023-03-05T07:29:53.136Z,99139.81
2023-03-05T07:32:25.332Z,99140.91
2023-03-05T07:34:52.187Z,99137.09
2023-03-05T07:37:19.058Z,99139.81
2023-03-05T07:39:47.251Z,99133.03
2023-03-05T07:42:14.275Z,99133.66
2023-03-05T07:44:41.217Z,99130.81
2023-03-05T07:47:08.027Z,99127.78
2023-03-05T07:49:35.468Z,99128.59
2023-03-05T07:52:02.300Z,99124.28
2023-03-05T07:54:29.105Z,99118.19
2023-03-05T07:56:56.118Z,99121.66
2023-03-05T07:59:23.102Z,99123.97
2023-03-05T08:01:49.999Z,99119.94
2023-03-05T08:04:17.002Z,99132.06
2023-03-05T08:06:43.925Z,99126.03
2023-03-05T08:09:10.720Z,99120.84
2023-03-05T08:11:37.493Z,99117.34
2023-03-05T08:14:04.779Z,99116.50
2023-03-05T08:16:31.654Z,99119.09
2023-03-05T08:18:59.168Z,99126.03
2023-03-05T08:21:33.915Z,99117.34
2023-03-05T08:24:06.190Z,99112.13
2023-03-05T08:26:35.736Z,99109.53
2023-03-05T08:29:03.449Z,99109.56
2023-03-05T08:31:31.681Z,99113.00
2023-03-05T08:34:00.170Z,99116.50
2023-03-05T08:36:27.881Z,99106.91
2023-03-05T08:38:57.229Z,99100.78
2023-03-05T08:41:24.117Z,99098.13
2023-03-05T08:43:51.196Z,99081.66
2023-03-05T08:46:18.365Z,99094.72
2023-03-05T08:48:45.236Z,99083.44
2023-03-05T08:51:15.791Z,99087.81
2023-03-05T08:53:44.273Z,99086.00
2023-03-05T08:56:12.519Z,99088.38
2023-03-05T08:58:39.793Z,99090.25
2023-03-05T09:01:07.346Z,99087.78
2023-03-05T09:03:34.423Z,99077.25
2023-03-05T09:06:02.944Z,99069.28
2023-03-05T09:08:30.074Z,99089.16
2023-03-05T09:10:57.609Z,99081.16
2023-03-05T09:13:24.813Z,99077.34
2023-03-05T09:15:56.698Z,99071.19
2023-03-05T09:18:24.198Z,99083.34
2023-03-05T09:20:51.391Z,99079.78
2023-03-05T09:23:18.427Z,99072.06
2023-03-05T09:25:45.368Z,99072.09
2023-03-05T09:28:12.187Z,99075.69
2023-03-05T09:30:39.704Z,99074.75
2023-03-05T09:33:06.747Z,99073.94
2023-03-05T09:35:37.922Z,99072.19
2023-03-05T09:38:05.356Z,99070.47
2023-03-05T09:40:47.044Z,99066.03
2023-03-05T09:43:30.196Z,99063.31
2023-03-05T09:46:16.321Z,99066.88
2023-03-05T09:48:52.675Z,99066.03
2023-03-05T09:51:29.200Z,99069.56
2023-03-05T09:54:05.476Z,99068.66
2023-03-05T09:56:39.960Z,99071.19
2023-03-05T09:59:15.946Z,99064.22
2023-03-05T10:01:45.185Z,99060.00
2023-03-05T10:04:18.712Z,99066.97
2023-03-05T10:07:12.842Z,99067.81
2023-03-05T10:09:54.922Z,99061.59
2023-03-05T10:12:25.791Z,99058.88
2023-03-05T10:14:53.117Z,99051.31
2023-03-05T10:17:47.310Z,99055.63
2023-03-05T10:20:38.416Z,99060.00
2023-03-05T10:23:08.462Z,99059.16
2023-03-05T10:25:54.999Z,99054.75
2023-03-05T10:28:29.924Z,99053.00
2023-03-05T10:31:35.522Z,99057.25
2023-03-05T10:34:21.924Z,99060.88
2023-03-05T10:37:37.013Z,99045.25
2023-03-05T10:40:45.732Z,99050.22
2023-03-05T10:43:25.258Z,99040.88
2023-03-05T10:45:57.370Z,99041.69
2023-03-05T10:48:45.371Z,99023.47
2023-03-05T10:51:21.318Z,99031.34
2023-03-05T10:53:55.369Z,99026.19
2023-03-05T10:56:24.089Z,99021.84
2023-03-05T10:58:53.004Z,99013.75
2023-03-05T11:01:22.816Z,99018.13
2023-03-05T11:03:59.339Z,99005.94
2023-03-05T11:06:56.552Z,99015.63
2023-03-05T11:09:32.936Z,99010.38
2023-03-05T11:12:22.071Z,99001.72
2023-03-05T11:15:26.916Z,99000.88
2023-03-05T11:18:14.478Z,98991.19
2023-03-05T11:20:41.941Z,98996.53
2023-03-05T11:23:16.304Z,99004.41
2023-03-05T11:26:13.485Z,98989.25
2023-03-05T11:28:55.540Z,98984.13
2023-03-05T11:31:28.338Z,98992.16
2023-03-05T11:33:57.426Z,98980.13
2023-03-05T11:36:42.260Z,98972.22
2023-03-05T11:39:15.777Z,98976.72
2023-03-05T11:42:01.761Z,98977.56
2023-03-05T11:44:50.484Z,98977.44
2023-03-05T11:47:26.598Z,98970.63
2023-03-05T11:50:01.244Z,98965.44
2023-03-05T11:52:40.013Z,98967.22
2023-03-05T11:55:26.065Z,98960.22
2023-03-05T11:58:11.816Z,98957.66
2023-03-05T12:00:43.302Z,98946.88
2023-03-05T12:03:20.949Z,98939.13
2023-03-05T12:05:54.631Z,98946.91
2023-03-05T12:08:30.400Z,98946.16
2023-03-05T12:11:00.470Z,98941.00
2023-03-05T12:13:44.684Z,98941.00
2023-03-05T12:16:24.515Z,98927.94
2023-03-05T12:19:11.362Z,98941.97
2023-03-05T12:21:43.320Z,98926.44
2023-03-05T12:24:28.010Z,98926.47
2023-03-05T12:27:04.498Z,98925.56
2023-03-05T12:29:53.122Z,98923.69
2023-03-05T12:32:23.174Z,98918.56
2023-03-05T12:34:57.850Z,98905.50
2023-03-05T12:37:24.903Z,98918.47
2023-03-05T12:39:59.249Z,98910.75
2023-03-05T12:42:29.438Z,98909.03
2023-03-05T12:45:17.212Z,98906.44
2023-03-05T12:47:48.875Z,98898.69
2023-03-05T12:50:28.030Z,98910.88
2023-03-05T12:53:07.254Z,98904.78
2023-03-05T12:55:46.124Z,98907.22
2023-03-05T12:58:40.823Z,98908.06
2023-03-05T13:01:26.359Z,98900.25
2023-03-05T13:04:10.967Z,98900.22
2023-03-05T13:06:39.709Z,98898.47
2023-03-05T13:09:18.437Z,98892.19
2023-03-05T13:11:50.016Z,98883.53
2023-03-05T13:14:37.116Z,98888.03
2023-03-05T13:17:23.712Z,98887.16
2023-03-05T13:19:50.715Z,98881.22
2023-03-05T13:22:17.508Z,98870.91
2023-03-05T13:24:44.360Z,98874.22
2023-03-05T13:27:30.048Z,98869.94
2023-03-05T13:29:57.209Z,98867.34
2023-03-05T13:32:28.354Z,98873.44
2023-03-05T13:34:58.419Z,98864.75
2023-03-05T13:37:34.834Z,98852.63
2023-03-05T13:40:29.384Z,98854.31
2023-03-05T13:43:09.925Z,98849.94
2023-03-05T13:45:37.027Z,98850.66
2023-03-05T13:48:07.107Z,98849.84
2023-03-05T13:50:39.959Z,98850.75
2023-03-05T13:53:15.870Z,98849.97
2023-03-05T13:55:42.847Z,98845.63
2023-03-05T13:58:40.576Z,98835.25
2023-03-05T14:01:29.898Z,98839.59
2023-03-05T14:04:07.973Z,98833.50
2023-03-05T14:06:41.679Z,98826.59
2023-03-05T14:09:20.324Z,98842.19
2023-03-05T14:11:59.302Z,98826.63
2023-03-05T14:14:27.518Z,98827.50
2023-03-05T14:16:54.826Z,98829.19
2023-03-05T14:19:36.596Z,98828.34
2023-03-05T14:22:04.999Z,98822.25
2023-03-05T14:24:33.483Z,98828.31
2023-03-05T14:27:21.506Z,98833.34
2023-03-05T14:29:48.381Z,98825.53
2023-03-05T14:32:38.859Z,98828.00
2023-03-05T14:35:06.956Z,98822.00
2023-03-05T14:37:42.434Z,98822.66
2023-03-05T14:40:12.363Z,98819.28
2023-03-05T14:42:42.132Z,98806.13
2023-03-05T14:45:17.860Z,98812.19
2023-03-05T14:47:45.081Z,98819.91
2023-03-05T14:50:21.917Z,98815.69
2023-03-05T14:52:51.457Z,98810.28
2023-03-05T14:55:21.117Z,98822.50
2023-03-05T14:57:49.140Z,98817.25
2023-03-05T15:00:24.749Z,98807.84
2023-03-05T15:02:52.018Z,98809.41
2023-03-05T15:05:19.520Z,98803.28
2023-03-05T15:07:47.714Z,98808.44
2023-03-05T15:10:17.887Z,98803.28
2023-03-05T15:12:45.292Z,98806.78
2023-03-05T15:15:15.019Z,98805.09
2023-03-05T15:17:48.602Z,98801.63
2023-03-05T15:20:27.994Z,98810.19
2023-03-05T15:22:55.704Z,98803.06
2023-03-05T15:25:25.704Z,98811.19
2023-03-05T15:27:53.079Z,98813.75
2023-03-05T15:30:32.287Z,98816.09
2023-03-05T15:33:02.637Z,98807.41
2023-03-05T15:35:29.822Z,98804.53
2023-03-05T15:37:58.177Z,98815.03
2023-03-05T15:40:27.802Z,98817.41
2023-03-05T15:42:58.914Z,98810.38
2023-03-05T15:45:26.221Z,98815.28
2023-03-05T15:47:53.690Z,98808.22
2023-03-05T15:50:21.794Z,98815.22
2023-03-05T15:52:49.822Z,98814.28
2023-03-05T15:55:18.572Z,98812.56
2023-03-05T15:57:48.125Z,98814.25
2023-03-05T16:00:17.341Z,98818.56
2023-03-05T16:02:44.224Z,98816.72
2023-03-05T16:05:11.358Z,98807.41
2023-03-05T16:07:42.426Z,98822.19
2023-03-05T16:10:17.769Z,98807.75
2023-03-05T16:12:47.138Z,98818.25
2023-03-05T16:15:17.315Z,98824.41
2023-03-05T16:17:47.710Z,98822.56
2023-03-05T16:20:15.909Z,98821.31
2023-03-05T16:22:42.858Z,98815.66
2023-03-05T16:25:10.190Z,98826.75
2023-03-05T16:27:37.104Z,98825.69
2023-03-05T16:30:05.516Z,98829.84
2023-03-05T16:32:32.784Z,98834.56
2023-03-05T16:34:59.617Z,98835.50
2023-03-05T16:37:26.547Z,98836.28
2023-03-05T16:39:53.444Z,98838.06
2023-03-05T16:42:20.246Z,98837.13
2023-03-05T16:44:47.608Z,98839.66
2023-03-05T16:47:14.569Z,98850.69
2023-03-05T16:49:41.476Z,98849.78
2023-03-05T16:52:18.195Z,98842.16
2023-03-05T16:54:47.058Z,98843.78
2023-03-05T16:57:15.248Z,98837.97
2023-03-05T16:59:43.805Z,98845.50
2023-03-05T17:02:13.331Z,98849.50
2023-03-05T17:04:40.370Z,98855.69
2023-03-05T17:07:07.683Z,98855.75
2023-03-05T17:09:35.897Z,98850.44
2023-03-05T17:12:02.803Z,98847.81
2023-03-05T17:14:29.653Z,98852.59
2023-03-05T17:16:59.025Z,98843.06
2023-03-05T17:19:26.037Z,98852.41
2023-03-05T17:21:53.050Z,98852.13
2023-03-05T17:24:21.541Z,98844.28
2023-03-05T17:26:50.268Z,98851.66
2023-03-05T17:29:19.090Z,98855.03
2023-03-05T17:31:46.975Z,98856.59
2023-03-05T17:34:14.562Z,98867.03
2023-03-05T17:36:41.626Z,98864.19
2023-03-05T17:39:09.016Z,98856.22
2023-03-05T17:41:35.912Z,98859.63
2023-03-05T17:44:02.725Z,98853.41
2023-03-05T17:46:29.684Z,98856.66
2023-03-05T17:48:56.578Z,98857.28
2023-03-05T17:51:23.372Z,98863.38
2023-03-05T17:53:50.215Z,98860.75
2023-03-05T17:56:17.473Z,98858.06
2023-03-05T17:58:44.326Z,98856.22
2023-03-05T18:01:11.771Z,98861.41
2023-03-05T18:03:39.676Z,98863.78
2023-03-05T18:06:06.836Z,98854.91
2023-03-05T18:08:33.664Z,98856.41
2023-03-05T18:11:00.712Z,98857.09
2023-03-05T18:13:27.538Z,98871.56
2023-03-05T18:15:57.528Z,98872.81
2023-03-05T18:18:24.489Z,98873.25
2023-03-05T18:20:51.396Z,98865.50
2023-03-05T18:23:18.368Z,98863.66
2023-03-05T18:25:45.332Z,98868.69
2023-03-05T18:28:14.893Z,98859.03
2023-03-05T18:30:43.198Z,98854.97
2023-03-05T18:33:18.804Z,98865.81
2023-03-05T18:35:46.555Z,98860.91
2023-03-05T18:38:13.332Z,98857.53
2023-03-05T18:40:40.805Z,98870.13
2023-03-05T18:43:08.068Z,98869.19
2023-03-05T18:45:34.878Z,98870.06
2023-03-05T18:48:01.767Z,98862.09
2023-03-05T18:50:29.269Z,98868.94
2023-03-05T18:52:56.462Z,98863.00
2023-03-05T18:55:27.139Z,98856.28
2023-03-05T18:57:55.053Z,98864.06
2023-03-05T19:00:28.029Z,98865.63
2023-03-05T19:02:56.308Z,98870.09
2023-03-05T19:05:25.696Z,98863.41
2023-03-05T19:07:53.408Z,98867.16
2023-03-05T19:10:22.683Z,98872.03
2023-03-05T19:12:56.105Z,98874.16
2023-03-05T19:15:23.317Z,98871.00
2023-03-05T19:17:50.317Z,98869.81
2023-03-05T19:20:18.419Z,98874.47
2023-03-05T19:22:45.518Z,98876.69
2023-03-05T19:25:13.200Z,98874.47
2023-03-05T19:27:40.553Z,98861.72
2023-03-05T19:30:13.029Z,98877.75
2023-03-05T19:32:40.567Z,98869.72
2023-03-05T19:35:07.746Z,98872.00
2023-03-05T19:37:34.839Z,98868.81
2023-03-05T19:40:01.655Z,98878.38
2023-03-05T19:42:29.039Z,98881.69
2023-03-05T19:44:57.798Z,98877.53
2023-03-05T19:47:26.144Z,98869.81
2023-03-05T19:49:53.129Z,98876.22
2023-03-05T19:52:20.022Z,98871.34
2023-03-05T19:54:47.430Z,98880.25
2023-03-05T19:57:15.599Z,98878.06
2023-03-05T19:59:44.209Z,98888.88
2023-03-05T20:02:13.014Z,98880.16
2023-03-05T20:04:40.049Z,98885.50
2023-03-05T20:07:07.302Z,98894.69
2023-03-05T20:09:34.187Z,98886.06
2023-03-05T20:12:04.901Z,98884.25
2023-03-05T20:14:31.773Z,98891.66
2023-03-05T20:16:58.703Z,98890.44
2023-03-05T20:19:25.878Z,98889.88
2023-03-05T20:21:52.783Z,98883.84
2023-03-05T20:24:20.452Z,98878.72
2023-03-05T20:26:48.512Z,98877.28
2023-03-05T20:29:18.083Z,98881.53
2023-03-05T20:31:45.962Z,98884.41
2023-03-05T20:34:15.885Z,98894.34
2023-03-05T20:36:43.046Z,98884.22
2023-03-05T20:39:10.038Z,98889.78
2023-03-05T20:41:39.172Z,98887.16
2023-03-05T20:44:08.025Z,98890.38
2023-03-05T20:46:39.542Z,98889.75
2023-03-05T20:49:25.164Z,98881.53
2023-03-05T20:51:52.193Z,98883.13
2023-03-05T20:54:19.224Z,98875.69
2023-03-05T20:56:46.370Z,98876.94
2023-03-05T20:59:13.209Z,98882.78
2023-03-05T21:01:41.428Z,98882.75
2023-03-05T21:04:09.235Z,98876.81
2023-03-05T21:06:36.650Z,98878.44
2023-03-05T21:09:04.801Z,98882.50
2023-03-05T21:11:32.383Z,98875.97
2023-03-05T21:13:59.664Z,98869.94
2023-03-05T21:16:28.282Z,98875.31
2023-03-05T21:18:56.469Z,98862.84
2023-03-05T21:21:23.624Z,98863.53
2023-03-05T21:23:50.765Z,98867.91
2023-03-05T21:26:18.474Z,98865.25
2023-03-05T21:28:45.938Z,98869.47
2023-03-05T21:31:19.281Z,98860.88
2023-03-05T21:33:47.173Z,98867.00
2023-03-05T21:36:19.208Z,98862.88
2023-03-05T21:38:50.006Z,98876.63
2023-03-05T21:41:18.432Z,98865.19
2023-03-05T21:43:46.037Z,98859.97
2023-03-05T21:46:13.783Z,98865.44
2023-03-05T21:48:41.107Z,98870.78
2023-03-05T21:51:13.901Z,98863.63
2023-03-05T21:53:40.749Z,98864.63
2023-03-05T21:56:17.948Z,98861.22
2023-03-05T21:58:44.974Z,98852.88
2023-03-05T22:01:13.358Z,98852.44
2023-03-05T22:03:40.371Z,98857.16
2023-03-05T22:06:15.873Z,98849.06
2023-03-05T22:08:43.165Z,98860.38
2023-03-05T22:11:15.786Z,98843.72
2023-03-05T22:13:43.013Z,98854.16
2023-03-05T22:16:11.716Z,98852.19
2023-03-05T22:18:38.879Z,98845.75
2023-03-05T22:21:15.103Z,98841.56
2023-03-05T22:23:41.945Z,98848.13
2023-03-05T22:26:08.761Z,98850.41
2023-03-05T22:28:36.708Z,98844.69
2023-03-05T22:31:03.707Z,98848.06
2023-03-05T22:33:31.770Z,98843.72
2023-03-05T22:35:59.100Z,98851.16
2023-03-05T22:38:26.327Z,98843.41
2023-03-05T22:40:53.363Z,98844.97
2023-03-05T22:43:21.192Z,98852.00
2023-03-05T22:45:48.118Z,98851.03
2023-03-05T22:48:15.030Z,98846.13
2023-03-05T22:50:44.384Z,98853.03
2023-03-05T22:53:12.717Z,98851.47
2023-03-05T22:55:42.209Z,98849.13
2023-03-05T22:58:09.339Z,98843.88
2023-03-05T23:00:37.266Z,98844.56
2023-03-05T23:03:06.377Z,98841.72
2023-03-05T23:05:34.831Z,98846.06
2023-03-05T23:08:01.877Z,98846.41
2023-03-05T23:10:29.539Z,98838.97
2023-03-05T23:12:58.704Z,98844.16
2023-03-05T23:15:34.474Z,98842.09
2023-03-05T23:18:02.166Z,98831.72
2023-03-05T23:20:33.661Z,98844.69
2023-03-05T23:23:02.298Z,98850.72
2023-03-05T23:25:32.003Z,98840.28
2023-03-05T23:28:00.361Z,98837.28
2023-03-05T23:30:32.593Z,98840.09
2023-03-05T23:33:02.743Z,98847.38
2023-03-05T23:35:38.021Z,98841.53
2023-03-05T23:38:12.591Z,98850.34
2023-03-05T23:40:45.996Z,98848.28
2023-03-05T23:43:13.505Z,98846.53
2023-03-05T23:45:45.111Z,98854.66
2023-03-05T23:48:12.174Z,98850.13
2023-03-05T23:50:41.388Z,98841.34
2023-03-05T23:53:09.878Z,98846.56
2023-03-05T23:55:42.167Z,98852.13
2023-03-05T23:58:09.565Z,98852.75
